sensor_id;sensor_type;location;lat;lon;timestamp;temperature;humidity
81307;DHT22;70775;50.846;3.224;2023-06-19T00:00:24;19.70;85.70
81307;DHT22;70775;50.846;3.224;2023-06-19T00:02:50;19.60;85.50
81307;DHT22;70775;50.846;3.224;2023-06-19T00:05:15;19.60;84.90
81307;DHT22;70775;50.846;3.224;2023-06-19T00:07:56;19.60;84.70
81307;DHT22;70775;50.846;3.224;2023-06-19T00:10:22;19.50;84.80
81307;DHT22;70775;50.846;3.224;2023-06-19T00:13:12;19.50;84.40
81307;DHT22;70775;50.846;3.224;2023-06-19T00:15:37;19.40;84.40
81307;DHT22;70775;50.846;3.224;2023-06-19T00:18:03;19.40;84.10
81307;DHT22;70775;50.846;3.224;2023-06-19T00:20:33;19.30;83.90
81307;DHT22;70775;50.846;3.224;2023-06-19T00:25:51;19.20;84.30
81307;DHT22;70775;50.846;3.224;2023-06-19T00:28:16;19.30;84.40
81307;DHT22;70775;50.846;3.224;2023-06-19T00:30:45;19.30;84.40
81307;DHT22;70775;50.846;3.224;2023-06-19T00:33:27;19.30;83.90
81307;DHT22;70775;50.846;3.224;2023-06-19T00:35:54;19.30;84.00
81307;DHT22;70775;50.846;3.224;2023-06-19T00:38:20;19.20;84.60
81307;DHT22;70775;50.846;3.224;2023-06-19T00:40:46;19.20;84.80
81307;DHT22;70775;50.846;3.224;2023-06-19T00:43:14;19.20;85.00
81307;DHT22;70775;50.846;3.224;2023-06-19T00:49:09;19.10;84.90
81307;DHT22;70775;50.846;3.224;2023-06-19T00:52:04;19.10;84.20
81307;DHT22;70775;50.846;3.224;2023-06-19T00:54:31;19.10;84.20
81307;DHT22;70775;50.846;3.224;2023-06-19T00:56:57;19.00;84.10
81307;DHT22;70775;50.846;3.224;2023-06-19T00:59:23;18.90;83.20
81307;DHT22;70775;50.846;3.224;2023-06-19T01:01:48;18.90;84.10
81307;DHT22;70775;50.846;3.224;2023-06-19T01:04:14;18.80;83.10
81307;DHT22;70775;50.846;3.224;2023-06-19T01:09:19;18.80;83.90
81307;DHT22;70775;50.846;3.224;2023-06-19T01:11:59;18.90;83.30
81307;DHT22;70775;50.846;3.224;2023-06-19T01:14:38;18.80;83.60
81307;DHT22;70775;50.846;3.224;2023-06-19T01:17:05;18.80;83.80
81307;DHT22;70775;50.846;3.224;2023-06-19T01:19:36;18.80;84.20
81307;DHT22;70775;50.846;3.224;2023-06-19T01:22:31;18.80;84.50
81307;DHT22;70775;50.846;3.224;2023-06-19T01:24:57;18.80;84.40
81307;DHT22;70775;50.846;3.224;2023-06-19T01:27:50;18.80;83.90
81307;DHT22;70775;50.846;3.224;2023-06-19T01:30:16;18.80;83.10
81307;DHT22;70775;50.846;3.224;2023-06-19T01:35:42;18.60;84.30
81307;DHT22;70775;50.846;3.224;2023-06-19T01:38:08;18.60;84.00
81307;DHT22;70775;50.846;3.224;2023-06-19T01:40:35;18.50;84.10
81307;DHT22;70775;50.846;3.224;2023-06-19T01:43:03;18.40;84.40
81307;DHT22;70775;50.846;3.224;2023-06-19T01:45:30;18.40;84.60
81307;DHT22;70775;50.846;3.224;2023-06-19T01:47:56;18.40;84.40
81307;DHT22;70775;50.846;3.224;2023-06-19T01:50:22;18.30;84.50
81307;DHT22;70775;50.846;3.224;2023-06-19T01:52:55;18.20;85.00
81307;DHT22;70775;50.846;3.224;2023-06-19T01:55:21;18.30;84.00
81307;DHT22;70775;50.846;3.224;2023-06-19T01:57:54;18.40;82.50
81307;DHT22;70775;50.846;3.224;2023-06-19T02:00:48;18.30;82.50
81307;DHT22;70775;50.846;3.224;2023-06-19T02:03:29;18.30;82.80
81307;DHT22;70775;50.846;3.224;2023-06-19T02:06:12;18.20;82.80
81307;DHT22;70775;50.846;3.224;2023-06-19T02:08:38;18.20;83.20
81307;DHT22;70775;50.846;3.224;2023-06-19T02:11:03;18.30;82.40
81307;DHT22;70775;50.846;3.224;2023-06-19T02:13:29;18.10;82.70
81307;DHT22;70775;50.846;3.224;2023-06-19T02:15:54;18.00;82.60
81307;DHT22;70775;50.846;3.224;2023-06-19T02:18:21;17.90;83.00
81307;DHT22;70775;50.846;3.224;2023-06-19T02:20:47;17.90;82.60
81307;DHT22;70775;50.846;3.224;2023-06-19T02:23:13;18.00;82.40
81307;DHT22;70775;50.846;3.224;2023-06-19T02:25:39;18.00;82.00
81307;DHT22;70775;50.846;3.224;2023-06-19T02:28:04;17.90;81.80
81307;DHT22;70775;50.846;3.224;2023-06-19T02:30:41;17.80;83.30
81307;DHT22;70775;50.846;3.224;2023-06-19T02:33:07;17.80;82.10
81307;DHT22;70775;50.846;3.224;2023-06-19T02:35:43;17.80;81.80
81307;DHT22;70775;50.846;3.224;2023-06-19T02:38:10;17.70;82.30
81307;DHT22;70775;50.846;3.224;2023-06-19T02:40:40;17.70;81.80
81307;DHT22;70775;50.846;3.224;2023-06-19T02:43:06;17.70;81.60
81307;DHT22;70775;50.846;3.224;2023-06-19T02:45:31;17.50;81.80
81307;DHT22;70775;50.846;3.224;2023-06-19T02:47:57;17.50;82.10
81307;DHT22;70775;50.846;3.224;2023-06-19T02:50:32;17.50;82.40
81307;DHT22;70775;50.846;3.224;2023-06-19T02:53:22;17.40;82.50
81307;DHT22;70775;50.846;3.224;2023-06-19T02:56:06;17.40;82.90
81307;DHT22;70775;50.846;3.224;2023-06-19T02:58:33;17.40;83.10
81307;DHT22;70775;50.846;3.224;2023-06-19T03:01:17;17.40;83.80
81307;DHT22;70775;50.846;3.224;2023-06-19T03:03:42;17.30;83.20
81307;DHT22;70775;50.846;3.224;2023-06-19T03:06:08;17.20;83.60
81307;DHT22;70775;50.846;3.224;2023-06-19T03:08:34;17.10;84.30
81307;DHT22;70775;50.846;3.224;2023-06-19T03:11:00;17.20;84.30
81307;DHT22;70775;50.846;3.224;2023-06-19T03:13:28;17.20;84.60
81307;DHT22;70775;50.846;3.224;2023-06-19T03:15:53;17.30;84.20
81307;DHT22;70775;50.846;3.224;2023-06-19T03:18:19;17.30;83.90
81307;DHT22;70775;50.846;3.224;2023-06-19T03:21:18;17.30;84.00
81307;DHT22;70775;50.846;3.224;2023-06-19T03:24:03;17.20;83.90
81307;DHT22;70775;50.846;3.224;2023-06-19T03:26:42;17.00;84.00
81307;DHT22;70775;50.846;3.224;2023-06-19T03:29:08;17.00;83.80
81307;DHT22;70775;50.846;3.224;2023-06-19T03:31:38;16.90;84.90
81307;DHT22;70775;50.846;3.224;2023-06-19T03:34:28;16.80;84.20
81307;DHT22;70775;50.846;3.224;2023-06-19T03:36:54;16.90;84.00
81307;DHT22;70775;50.846;3.224;2023-06-19T03:42:54;16.80;84.30
81307;DHT22;70775;50.846;3.224;2023-06-19T03:45:32;16.70;84.50
81307;DHT22;70775;50.846;3.224;2023-06-19T03:47:58;16.80;84.60
81307;DHT22;70775;50.846;3.224;2023-06-19T03:50:29;16.80;84.30
81307;DHT22;70775;50.846;3.224;2023-06-19T03:53:19;16.90;83.90
81307;DHT22;70775;50.846;3.224;2023-06-19T03:56:05;16.90;84.00
81307;DHT22;70775;50.846;3.224;2023-06-19T03:58:30;16.90;84.10
81307;DHT22;70775;50.846;3.224;2023-06-19T04:00:56;16.90;83.80
81307;DHT22;70775;50.846;3.224;2023-06-19T04:06:57;16.90;84.10
81307;DHT22;70775;50.846;3.224;2023-06-19T04:09:28;17.00;84.20
81307;DHT22;70775;50.846;3.224;2023-06-19T04:12:12;16.90;84.20
81307;DHT22;70775;50.846;3.224;2023-06-19T04:14:37;16.90;83.70
81307;DHT22;70775;50.846;3.224;2023-06-19T04:17:03;17.00;83.80
81307;DHT22;70775;50.846;3.224;2023-06-19T04:19:28;17.00;83.70
81307;DHT22;70775;50.846;3.224;2023-06-19T04:21:54;17.00;84.30
81307;DHT22;70775;50.846;3.224;2023-06-19T04:24:20;17.00;83.50
81307;DHT22;70775;50.846;3.224;2023-06-19T04:26:45;17.10;82.30
81307;DHT22;70775;50.846;3.224;2023-06-19T04:29:11;17.10;82.80
81307;DHT22;70775;50.846;3.224;2023-06-19T04:31:43;17.10;82.80
81307;DHT22;70775;50.846;3.224;2023-06-19T04:34:14;17.00;82.90
81307;DHT22;70775;50.846;3.224;2023-06-19T04:36:40;17.00;82.90
81307;DHT22;70775;50.846;3.224;2023-06-19T04:39:06;17.00;83.40
81307;DHT22;70775;50.846;3.224;2023-06-19T04:41:32;17.00;83.30
81307;DHT22;70775;50.846;3.224;2023-06-19T04:43:57;17.00;83.00
81307;DHT22;70775;50.846;3.224;2023-06-19T04:46:23;17.10;82.70
81307;DHT22;70775;50.846;3.224;2023-06-19T04:48:49;17.10;83.00
81307;DHT22;70775;50.846;3.224;2023-06-19T04:51:17;17.00;82.80
81307;DHT22;70775;50.846;3.224;2023-06-19T04:53:49;17.00;82.90
81307;DHT22;70775;50.846;3.224;2023-06-19T04:56:15;17.10;82.20
81307;DHT22;70775;50.846;3.224;2023-06-19T04:58:41;17.10;82.20
81307;DHT22;70775;50.846;3.224;2023-06-19T05:01:14;17.10;82.60
81307;DHT22;70775;50.846;3.224;2023-06-19T05:03:40;17.10;82.80
81307;DHT22;70775;50.846;3.224;2023-06-19T05:06:06;17.10;82.30
81307;DHT22;70775;50.846;3.224;2023-06-19T05:08:31;17.10;83.00
81307;DHT22;70775;50.846;3.224;2023-06-19T05:10:57;17.20;82.60
81307;DHT22;70775;50.846;3.224;2023-06-19T05:13:23;17.10;82.80
81307;DHT22;70775;50.846;3.224;2023-06-19T05:15:49;17.20;82.20
81307;DHT22;70775;50.846;3.224;2023-06-19T05:18:16;17.20;82.00
81307;DHT22;70775;50.846;3.224;2023-06-19T05:20:43;17.30;82.30
81307;DHT22;70775;50.846;3.224;2023-06-19T05:23:08;17.30;82.30
81307;DHT22;70775;50.846;3.224;2023-06-19T05:25:34;17.30;82.30
81307;DHT22;70775;50.846;3.224;2023-06-19T05:27:59;17.30;82.60
81307;DHT22;70775;50.846;3.224;2023-06-19T05:30:25;17.30;82.90
81307;DHT22;70775;50.846;3.224;2023-06-19T05:32:51;17.30;82.50
81307;DHT22;70775;50.846;3.224;2023-06-19T05:35:16;17.40;83.30
81307;DHT22;70775;50.846;3.224;2023-06-19T05:37:42;17.50;82.10
81307;DHT22;70775;50.846;3.224;2023-06-19T05:40:11;17.50;81.90
81307;DHT22;70775;50.846;3.224;2023-06-19T05:42:37;17.60;81.90
81307;DHT22;70775;50.846;3.224;2023-06-19T05:45:05;17.50;81.80
81307;DHT22;70775;50.846;3.224;2023-06-19T05:47:31;17.50;81.80
81307;DHT22;70775;50.846;3.224;2023-06-19T05:49:57;17.60;81.60
81307;DHT22;70775;50.846;3.224;2023-06-19T05:52:23;17.60;82.10
81307;DHT22;70775;50.846;3.224;2023-06-19T05:54:50;17.60;81.70
81307;DHT22;70775;50.846;3.224;2023-06-19T05:57:15;17.60;82.00
81307;DHT22;70775;50.846;3.224;2023-06-19T05:59:44;17.70;81.80
81307;DHT22;70775;50.846;3.224;2023-06-19T06:02:09;17.60;82.40
81307;DHT22;70775;50.846;3.224;2023-06-19T06:04:35;17.70;81.30
81307;DHT22;70775;50.846;3.224;2023-06-19T06:07:01;17.80;81.00
81307;DHT22;70775;50.846;3.224;2023-06-19T06:09:27;17.70;81.60
81307;DHT22;70775;50.846;3.224;2023-06-19T06:11:53;17.80;81.00
81307;DHT22;70775;50.846;3.224;2023-06-19T06:14:18;17.80;81.40
81307;DHT22;70775;50.846;3.224;2023-06-19T06:16:44;17.80;81.00
81307;DHT22;70775;50.846;3.224;2023-06-19T06:19:10;17.80;81.10
81307;DHT22;70775;50.846;3.224;2023-06-19T06:21:40;18.00;80.80
81307;DHT22;70775;50.846;3.224;2023-06-19T06:24:17;18.00;80.80
81307;DHT22;70775;50.846;3.224;2023-06-19T06:26:43;18.10;80.40
81307;DHT22;70775;50.846;3.224;2023-06-19T06:29:17;18.10;80.50
81307;DHT22;70775;50.846;3.224;2023-06-19T06:31:46;18.10;79.50
81307;DHT22;70775;50.846;3.224;2023-06-19T06:34:12;18.10;80.50
81307;DHT22;70775;50.846;3.224;2023-06-19T06:36:38;18.10;79.20
81307;DHT22;70775;50.846;3.224;2023-06-19T06:39:12;17.90;79.90
81307;DHT22;70775;50.846;3.224;2023-06-19T06:41:38;18.00;80.90
81307;DHT22;70775;50.846;3.224;2023-06-19T06:44:03;18.10;80.40
81307;DHT22;70775;50.846;3.224;2023-06-19T06:46:30;18.30;79.50
81307;DHT22;70775;50.846;3.224;2023-06-19T06:48:55;18.40;79.30
81307;DHT22;70775;50.846;3.224;2023-06-19T06:51:22;18.50;79.70
81307;DHT22;70775;50.846;3.224;2023-06-19T06:54:11;18.40;78.80
81307;DHT22;70775;50.846;3.224;2023-06-19T06:56:36;18.50;78.50
81307;DHT22;70775;50.846;3.224;2023-06-19T06:59:02;18.60;78.50
81307;DHT22;70775;50.846;3.224;2023-06-19T07:01:40;18.60;77.90
81307;DHT22;70775;50.846;3.224;2023-06-19T07:04:06;18.70;78.10
81307;DHT22;70775;50.846;3.224;2023-06-19T07:06:32;18.70;79.40
81307;DHT22;70775;50.846;3.224;2023-06-19T07:08:57;18.70;77.70
81307;DHT22;70775;50.846;3.224;2023-06-19T07:11:23;18.70;77.70
81307;DHT22;70775;50.846;3.224;2023-06-19T07:13:48;18.80;77.80
81307;DHT22;70775;50.846;3.224;2023-06-19T07:16:14;18.90;78.20
81307;DHT22;70775;50.846;3.224;2023-06-19T07:18:40;19.00;76.40
81307;DHT22;70775;50.846;3.224;2023-06-19T07:21:11;19.10;76.30
81307;DHT22;70775;50.846;3.224;2023-06-19T07:23:42;19.40;75.70
81307;DHT22;70775;50.846;3.224;2023-06-19T07:26:09;19.50;76.00
81307;DHT22;70775;50.846;3.224;2023-06-19T07:28:35;19.50;75.80
81307;DHT22;70775;50.846;3.224;2023-06-19T07:31:04;19.50;74.00
81307;DHT22;70775;50.846;3.224;2023-06-19T07:33:29;19.40;73.70
81307;DHT22;70775;50.846;3.224;2023-06-19T07:35:55;19.30;75.50
81307;DHT22;70775;50.846;3.224;2023-06-19T07:38:21;19.50;75.10
81307;DHT22;70775;50.846;3.224;2023-06-19T07:40:47;19.50;74.50
81307;DHT22;70775;50.846;3.224;2023-06-19T07:43:13;19.70;74.60
81307;DHT22;70775;50.846;3.224;2023-06-19T07:45:46;19.70;75.30
81307;DHT22;70775;50.846;3.224;2023-06-19T07:48:12;19.80;74.10
81307;DHT22;70775;50.846;3.224;2023-06-19T07:50:41;19.60;73.00
81307;DHT22;70775;50.846;3.224;2023-06-19T07:53:07;19.50;74.60
81307;DHT22;70775;50.846;3.224;2023-06-19T07:55:33;19.50;74.10
81307;DHT22;70775;50.846;3.224;2023-06-19T07:58:02;19.60;74.20
81307;DHT22;70775;50.846;3.224;2023-06-19T08:00:28;19.60;74.30
81307;DHT22;70775;50.846;3.224;2023-06-19T08:03:12;19.60;73.80
81307;DHT22;70775;50.846;3.224;2023-06-19T08:05:38;19.60;73.40
81307;DHT22;70775;50.846;3.224;2023-06-19T08:08:04;19.50;74.00
81307;DHT22;70775;50.846;3.224;2023-06-19T08:10:29;19.60;73.90
81307;DHT22;70775;50.846;3.224;2023-06-19T08:12:55;19.80;74.00
81307;DHT22;70775;50.846;3.224;2023-06-19T08:15:21;19.80;73.00
81307;DHT22;70775;50.846;3.224;2023-06-19T08:17:53;19.80;73.90
81307;DHT22;70775;50.846;3.224;2023-06-19T08:20:19;19.90;72.90
81307;DHT22;70775;50.846;3.224;2023-06-19T08:22:45;20.00;72.40
81307;DHT22;70775;50.846;3.224;2023-06-19T08:25:11;20.00;72.30
81307;DHT22;70775;50.846;3.224;2023-06-19T08:27:37;20.10;71.60
81307;DHT22;70775;50.846;3.224;2023-06-19T08:30:03;20.10;73.20
81307;DHT22;70775;50.846;3.224;2023-06-19T08:32:30;20.30;70.50
81307;DHT22;70775;50.846;3.224;2023-06-19T08:34:56;20.30;70.30
81307;DHT22;70775;50.846;3.224;2023-06-19T08:37:22;20.20;71.10
81307;DHT22;70775;50.846;3.224;2023-06-19T08:39:56;20.20;70.30
81307;DHT22;70775;50.846;3.224;2023-06-19T08:42:22;20.10;71.90
81307;DHT22;70775;50.846;3.224;2023-06-19T08:45:02;20.30;71.60
81307;DHT22;70775;50.846;3.224;2023-06-19T08:47:34;20.60;70.80
81307;DHT22;70775;50.846;3.224;2023-06-19T08:50:00;20.60;69.70
81307;DHT22;70775;50.846;3.224;2023-06-19T08:52:25;20.60;70.00
81307;DHT22;70775;50.846;3.224;2023-06-19T08:54:51;20.60;69.70
81307;DHT22;70775;50.846;3.224;2023-06-19T08:57:17;20.70;69.20
81307;DHT22;70775;50.846;3.224;2023-06-19T08:59:50;21.10;69.40
81307;DHT22;70775;50.846;3.224;2023-06-19T09:02:16;21.20;67.20
81307;DHT22;70775;50.846;3.224;2023-06-19T09:04:42;21.40;68.00
81307;DHT22;70775;50.846;3.224;2023-06-19T09:07:08;21.40;66.90
81307;DHT22;70775;50.846;3.224;2023-06-19T09:09:34;21.30;68.10
81307;DHT22;70775;50.846;3.224;2023-06-19T09:14:36;20.90;68.70
81307;DHT22;70775;50.846;3.224;2023-06-19T09:17:03;20.80;70.30
81307;DHT22;70775;50.846;3.224;2023-06-19T09:19:30;21.00;66.80
81307;DHT22;70775;50.846;3.224;2023-06-19T09:22:07;20.90;67.10
81307;DHT22;70775;50.846;3.224;2023-06-19T09:24:34;21.10;68.80
81307;DHT22;70775;50.846;3.224;2023-06-19T09:27:07;21.30;68.00
81307;DHT22;70775;50.846;3.224;2023-06-19T09:29:36;21.70;66.30
81307;DHT22;70775;50.846;3.224;2023-06-19T09:32:23;21.70;65.70
81307;DHT22;70775;50.846;3.224;2023-06-19T09:34:51;21.90;66.20
81307;DHT22;70775;50.846;3.224;2023-06-19T09:37:27;22.10;66.40
81307;DHT22;70775;50.846;3.224;2023-06-19T09:39:55;22.30;65.10
81307;DHT22;70775;50.846;3.224;2023-06-19T09:42:30;22.10;65.40
81307;DHT22;70775;50.846;3.224;2023-06-19T09:45:05;22.10;65.00
81307;DHT22;70775;50.846;3.224;2023-06-19T09:47:46;22.20;66.20
81307;DHT22;70775;50.846;3.224;2023-06-19T09:50:14;22.20;63.40
81307;DHT22;70775;50.846;3.224;2023-06-19T09:52:42;22.20;62.60
81307;DHT22;70775;50.846;3.224;2023-06-19T09:55:13;22.40;63.50
81307;DHT22;70775;50.846;3.224;2023-06-19T09:57:50;22.30;62.20
81307;DHT22;70775;50.846;3.224;2023-06-19T10:00:18;22.30;60.50
81307;DHT22;70775;50.846;3.224;2023-06-19T10:02:48;22.30;63.30
81307;DHT22;70775;50.846;3.224;2023-06-19T10:05:14;22.30;61.00
81307;DHT22;70775;50.846;3.224;2023-06-19T10:07:47;22.50;62.50
81307;DHT22;70775;50.846;3.224;2023-06-19T10:10:26;22.60;61.60
81307;DHT22;70775;50.846;3.224;2023-06-19T10:12:55;22.90;59.30
81307;DHT22;70775;50.846;3.224;2023-06-19T10:15:25;23.00;59.50
81307;DHT22;70775;50.846;3.224;2023-06-19T10:18:04;23.10;59.70
81307;DHT22;70775;50.846;3.224;2023-06-19T10:20:37;23.50;58.60
81307;DHT22;70775;50.846;3.224;2023-06-19T10:25:42;23.40;58.50
81307;DHT22;70775;50.846;3.224;2023-06-19T10:28:30;23.50;59.10
81307;DHT22;70775;50.846;3.224;2023-06-19T10:31:06;23.80;58.10
81307;DHT22;70775;50.846;3.224;2023-06-19T10:33:34;24.00;57.00
81307;DHT22;70775;50.846;3.224;2023-06-19T10:36:01;23.90;57.10
81307;DHT22;70775;50.846;3.224;2023-06-19T10:38:28;24.10;56.80
81307;DHT22;70775;50.846;3.224;2023-06-19T10:40:57;24.40;57.30
81307;DHT22;70775;50.846;3.224;2023-06-19T10:43:27;24.70;57.10
81307;DHT22;70775;50.846;3.224;2023-06-19T10:45:57;24.60;53.80
81307;DHT22;70775;50.846;3.224;2023-06-19T10:48:24;24.40;54.60
81307;DHT22;70775;50.846;3.224;2023-06-19T10:50:50;24.50;56.90
81307;DHT22;70775;50.846;3.224;2023-06-19T10:53:35;24.80;55.30
81307;DHT22;70775;50.846;3.224;2023-06-19T10:56:01;24.90;55.10
81307;DHT22;70775;50.846;3.224;2023-06-19T10:58:28;25.00;54.20
81307;DHT22;70775;50.846;3.224;2023-06-19T11:01:19;25.00;53.40
81307;DHT22;70775;50.846;3.224;2023-06-19T11:03:53;24.80;52.50
81307;DHT22;70775;50.846;3.224;2023-06-19T11:06:22;25.00;55.50
81307;DHT22;70775;50.846;3.224;2023-06-19T11:08:57;25.10;52.70
81307;DHT22;70775;50.846;3.224;2023-06-19T11:11:23;25.20;53.00
81307;DHT22;70775;50.846;3.224;2023-06-19T11:13:48;25.20;51.20
81307;DHT22;70775;50.846;3.224;2023-06-19T11:16:14;25.50;54.80
81307;DHT22;70775;50.846;3.224;2023-06-19T11:18:40;25.60;49.70
81307;DHT22;70775;50.846;3.224;2023-06-19T11:21:06;25.40;51.80
81307;DHT22;70775;50.846;3.224;2023-06-19T11:23:31;25.40;53.10
81307;DHT22;70775;50.846;3.224;2023-06-19T11:26:04;25.20;49.40
81307;DHT22;70775;50.846;3.224;2023-06-19T11:28:32;25.50;50.50
81307;DHT22;70775;50.846;3.224;2023-06-19T11:31:02;25.40;52.00
81307;DHT22;70775;50.846;3.224;2023-06-19T11:33:32;25.50;52.20
81307;DHT22;70775;50.846;3.224;2023-06-19T11:36:01;25.50;50.30
81307;DHT22;70775;50.846;3.224;2023-06-19T11:38:28;25.30;52.30
81307;DHT22;70775;50.846;3.224;2023-06-19T11:40:55;25.50;52.00
81307;DHT22;70775;50.846;3.224;2023-06-19T11:43:29;25.80;51.20
81307;DHT22;70775;50.846;3.224;2023-06-19T11:46:05;25.90;51.20
81307;DHT22;70775;50.846;3.224;2023-06-19T11:48:31;26.00;53.10
81307;DHT22;70775;50.846;3.224;2023-06-19T11:50:57;26.50;49.50
81307;DHT22;70775;50.846;3.224;2023-06-19T11:53:24;26.60;51.10
81307;DHT22;70775;50.846;3.224;2023-06-19T11:55:51;26.60;52.10
81307;DHT22;70775;50.846;3.224;2023-06-19T11:58:17;26.10;52.00
81307;DHT22;70775;50.846;3.224;2023-06-19T12:00:44;25.80;52.90
81307;DHT22;70775;50.846;3.224;2023-06-19T12:03:10;25.80;53.40
81307;DHT22;70775;50.846;3.224;2023-06-19T12:05:37;25.80;53.20
81307;DHT22;70775;50.846;3.224;2023-06-19T12:08:03;25.90;53.40
81307;DHT22;70775;50.846;3.224;2023-06-19T12:10:30;26.10;53.90
81307;DHT22;70775;50.846;3.224;2023-06-19T12:12:56;26.70;52.70
81307;DHT22;70775;50.846;3.224;2023-06-19T12:15:22;27.10;51.00
81307;DHT22;70775;50.846;3.224;2023-06-19T12:17:48;27.30;50.40
81307;DHT22;70775;50.846;3.224;2023-06-19T12:20:14;27.40;51.30
81307;DHT22;70775;50.846;3.224;2023-06-19T12:22:58;27.70;51.70
81307;DHT22;70775;50.846;3.224;2023-06-19T12:25:23;28.10;48.00
81307;DHT22;70775;50.846;3.224;2023-06-19T12:27:49;28.10;47.10
81307;DHT22;70775;50.846;3.224;2023-06-19T12:30:23;28.00;47.10
81307;DHT22;70775;50.846;3.224;2023-06-19T12:32:49;27.80;48.00
81307;DHT22;70775;50.846;3.224;2023-06-19T12:35:30;27.60;47.70
81307;DHT22;70775;50.846;3.224;2023-06-19T12:37:56;27.30;49.40
81307;DHT22;70775;50.846;3.224;2023-06-19T12:40:22;27.50;49.10
81307;DHT22;70775;50.846;3.224;2023-06-19T12:42:47;27.70;50.80
81307;DHT22;70775;50.846;3.224;2023-06-19T12:45:15;27.70;48.50
81307;DHT22;70775;50.846;3.224;2023-06-19T12:47:43;27.50;48.40
81307;DHT22;70775;50.846;3.224;2023-06-19T12:50:09;27.70;49.60
81307;DHT22;70775;50.846;3.224;2023-06-19T12:52:46;28.10;48.30
81307;DHT22;70775;50.846;3.224;2023-06-19T12:55:15;28.20;46.70
81307;DHT22;70775;50.846;3.224;2023-06-19T12:57:41;27.70;46.80
81307;DHT22;70775;50.846;3.224;2023-06-19T13:00:13;27.80;47.70
81307;DHT22;70775;50.846;3.224;2023-06-19T13:02:39;27.80;46.10
81307;DHT22;70775;50.846;3.224;2023-06-19T13:05:24;27.60;47.00
81307;DHT22;70775;50.846;3.224;2023-06-19T13:07:52;27.90;45.40
81307;DHT22;70775;50.846;3.224;2023-06-19T13:10:18;28.10;45.50
81307;DHT22;70775;50.846;3.224;2023-06-19T13:12:43;28.10;46.80
81307;DHT22;70775;50.846;3.224;2023-06-19T13:15:09;28.30;45.10
81307;DHT22;70775;50.846;3.224;2023-06-19T13:17:37;28.60;43.80
81307;DHT22;70775;50.846;3.224;2023-06-19T13:20:03;28.90;45.50
81307;DHT22;70775;50.846;3.224;2023-06-19T13:22:36;29.30;43.50
81307;DHT22;70775;50.846;3.224;2023-06-19T13:25:02;28.80;43.20
81307;DHT22;70775;50.846;3.224;2023-06-19T13:27:31;28.40;43.60
81307;DHT22;70775;50.846;3.224;2023-06-19T13:29:57;28.00;44.80
81307;DHT22;70775;50.846;3.224;2023-06-19T13:32:22;27.90;44.80
81307;DHT22;70775;50.846;3.224;2023-06-19T13:34:48;27.70;45.10
81307;DHT22;70775;50.846;3.224;2023-06-19T13:37:14;28.00;46.80
81307;DHT22;70775;50.846;3.224;2023-06-19T13:39:40;28.00;46.90
81307;DHT22;70775;50.846;3.224;2023-06-19T13:42:14;28.00;45.30
81307;DHT22;70775;50.846;3.224;2023-06-19T13:44:45;28.10;45.60
81307;DHT22;70775;50.846;3.224;2023-06-19T13:47:10;27.90;44.90
81307;DHT22;70775;50.846;3.224;2023-06-19T13:49:36;28.00;45.80
81307;DHT22;70775;50.846;3.224;2023-06-19T13:52:05;28.60;44.30
81307;DHT22;70775;50.846;3.224;2023-06-19T13:54:36;28.60;43.60
81307;DHT22;70775;50.846;3.224;2023-06-19T13:57:01;28.90;43.00
81307;DHT22;70775;50.846;3.224;2023-06-19T13:59:27;29.00;43.80
81307;DHT22;70775;50.846;3.224;2023-06-19T14:01:53;28.60;42.50
81307;DHT22;70775;50.846;3.224;2023-06-19T14:04:20;28.60;42.90
81307;DHT22;70775;50.846;3.224;2023-06-19T14:06:45;28.80;42.90
81307;DHT22;70775;50.846;3.224;2023-06-19T14:09:12;28.70;43.40
81307;DHT22;70775;50.846;3.224;2023-06-19T14:11:38;29.00;44.00
81307;DHT22;70775;50.846;3.224;2023-06-19T14:14:04;29.20;42.10
81307;DHT22;70775;50.846;3.224;2023-06-19T14:16:31;29.20;44.00
81307;DHT22;70775;50.846;3.224;2023-06-19T14:18:57;29.20;42.80
81307;DHT22;70775;50.846;3.224;2023-06-19T14:21:23;29.50;42.30
81307;DHT22;70775;50.846;3.224;2023-06-19T14:23:49;29.60;43.00
81307;DHT22;70775;50.846;3.224;2023-06-19T14:26:14;29.80;42.30
81307;DHT22;70775;50.846;3.224;2023-06-19T14:28:40;30.00;42.20
81307;DHT22;70775;50.846;3.224;2023-06-19T14:31:06;30.20;41.10
81307;DHT22;70775;50.846;3.224;2023-06-19T14:33:32;30.30;41.90
81307;DHT22;70775;50.846;3.224;2023-06-19T14:35:59;30.20;41.80
81307;DHT22;70775;50.846;3.224;2023-06-19T14:38:25;30.20;41.00
81307;DHT22;70775;50.846;3.224;2023-06-19T14:40:53;30.10;39.60
81307;DHT22;70775;50.846;3.224;2023-06-19T14:43:24;29.90;41.90
81307;DHT22;70775;50.846;3.224;2023-06-19T14:45:50;30.00;40.30
81307;DHT22;70775;50.846;3.224;2023-06-19T14:48:23;29.70;41.10
81307;DHT22;70775;50.846;3.224;2023-06-19T14:50:49;29.80;41.40
81307;DHT22;70775;50.846;3.224;2023-06-19T14:53:14;30.40;41.60
81307;DHT22;70775;50.846;3.224;2023-06-19T14:55:40;30.50;39.20
81307;DHT22;70775;50.846;3.224;2023-06-19T14:58:12;30.50;41.00
81307;DHT22;70775;50.846;3.224;2023-06-19T15:00:37;30.60;39.50
81307;DHT22;70775;50.846;3.224;2023-06-19T15:03:04;30.80;41.00
81307;DHT22;70775;50.846;3.224;2023-06-19T15:05:31;30.70;39.40
81307;DHT22;70775;50.846;3.224;2023-06-19T15:07:57;30.20;39.20
81307;DHT22;70775;50.846;3.224;2023-06-19T15:10:22;29.80;40.60
81307;DHT22;70775;50.846;3.224;2023-06-19T15:12:48;29.40;41.40
81307;DHT22;70775;50.846;3.224;2023-06-19T15:15:14;29.10;41.90
81307;DHT22;70775;50.846;3.224;2023-06-19T15:17:40;28.80;41.10
81307;DHT22;70775;50.846;3.224;2023-06-19T15:20:06;28.60;42.90
81307;DHT22;70775;50.846;3.224;2023-06-19T15:22:33;28.40;42.80
81307;DHT22;70775;50.846;3.224;2023-06-19T15:24:59;28.30;42.70
81307;DHT22;70775;50.846;3.224;2023-06-19T15:27:24;28.10;44.50
81307;DHT22;70775;50.846;3.224;2023-06-19T15:29:50;28.20;43.20
81307;DHT22;70775;50.846;3.224;2023-06-19T15:32:15;28.10;43.10
81307;DHT22;70775;50.846;3.224;2023-06-19T15:34:41;28.00;43.80
81307;DHT22;70775;50.846;3.224;2023-06-19T15:37:07;27.90;44.00
81307;DHT22;70775;50.846;3.224;2023-06-19T15:39:32;27.90;45.20
81307;DHT22;70775;50.846;3.224;2023-06-19T15:41:58;27.70;43.80
81307;DHT22;70775;50.846;3.224;2023-06-19T15:44:23;27.50;45.50
81307;DHT22;70775;50.846;3.224;2023-06-19T15:46:49;27.50;45.60
81307;DHT22;70775;50.846;3.224;2023-06-19T15:49:15;27.50;45.20
81307;DHT22;70775;50.846;3.224;2023-06-19T15:51:43;27.30;45.30
81307;DHT22;70775;50.846;3.224;2023-06-19T15:54:08;27.10;45.90
81307;DHT22;70775;50.846;3.224;2023-06-19T15:56:34;26.90;47.10
81307;DHT22;70775;50.846;3.224;2023-06-19T15:58:59;27.00;45.80
81307;DHT22;70775;50.846;3.224;2023-06-19T16:01:25;27.10;46.10
81307;DHT22;70775;50.846;3.224;2023-06-19T16:03:51;27.10;45.70